createdAt,value
2022-09-06T00:01:17.115Z,44.83
2022-09-06T00:03:45.678Z,45.17
2022-09-06T00:06:17.557Z,45.14
2022-09-06T00:08:46.713Z,45.42
2022-09-06T00:11:15.361Z,45.90
2022-09-06T00:13:42.642Z,45.54
2022-09-06T00:16:15.522Z,46.09
2022-09-06T00:18:46.535Z,45.72
2022-09-06T00:21:27.980Z,45.98
2022-09-06T00:23:56.130Z,45.75
2022-09-06T00:26:23.834Z,45.62
2022-09-06T00:28:51.174Z,46.20
2022-09-06T00:31:23.368Z,46.35
2022-09-06T00:33:51.678Z,46.46
2022-09-06T00:36:20.254Z,46.50
2022-09-06T00:38:47.949Z,46.45
2022-09-06T00:41:16.892Z,47.36
2022-09-06T00:43:44.452Z,47.13
2022-09-06T00:46:24.815Z,47.08
2022-09-06T00:48:59.798Z,47.16
2022-09-06T00:51:30.459Z,47.10
2022-09-06T00:53:58.729Z,47.49
2022-09-06T00:56:27.445Z,47.70
2022-09-06T00:58:56.103Z,47.10
2022-09-06T01:01:23.820Z,47.07
2022-09-06T01:03:52.357Z,47.30
2022-09-06T01:07:10.327Z,47.04
2022-09-06T01:10:11.745Z,47.72
2022-09-06T01:13:19.305Z,47.54
2022-09-06T01:16:30.305Z,47.95
2022-09-06T01:19:07.809Z,47.92
2022-09-06T01:21:52.947Z,48.05
2022-09-06T01:25:05.075Z,48.00
2022-09-06T01:28:45.926Z,48.27
2022-09-06T01:31:35.299Z,47.73
2022-09-06T01:34:08.125Z,47.61
2022-09-06T01:37:10.810Z,47.39
2022-09-06T01:39:41.281Z,47.29
2022-09-06T01:42:22.222Z,48.02
2022-09-06T01:45:19.416Z,48.03
2022-09-06T01:48:29.392Z,48.70
2022-09-06T01:51:30.852Z,49.91
2022-09-06T01:54:28.518Z,49.94
2022-09-06T01:57:56.312Z,50.29
2022-09-06T02:00:23.842Z,50.01
2022-09-06T02:03:26.745Z,50.95
2022-09-06T02:06:06.249Z,50.21
2022-09-06T02:08:42.752Z,50.26
2022-09-06T02:11:10.958Z,50.91
2022-09-06T02:14:02.612Z,51.07
2022-09-06T02:16:32.803Z,52.09
2022-09-06T02:19:14.366Z,52.05
2022-09-06T02:21:47.329Z,52.60
2022-09-06T02:24:28.938Z,52.23
2022-09-06T02:26:56.287Z,52.62
2022-09-06T02:29:24.040Z,53.22
2022-09-06T02:32:23.336Z,53.07
2022-09-06T02:34:57.098Z,53.95
2022-09-06T02:37:28.537Z,53.31
2022-09-06T02:39:56.213Z,54.17
2022-09-06T02:42:24.319Z,54.20
2022-09-06T02:44:51.287Z,54.37
2022-09-06T02:47:18.327Z,53.66
2022-09-06T02:49:45.261Z,54.45
2022-09-06T02:52:12.257Z,55.65
2022-09-06T02:54:39.254Z,54.65
2022-09-06T02:57:06.382Z,55.36
2022-09-06T02:59:33.772Z,54.63
2022-09-06T03:02:00.824Z,55.15
2022-09-06T03:04:27.874Z,55.50
2022-09-06T03:06:56.275Z,54.77
2022-09-06T03:09:25.224Z,55.44
2022-09-06T03:11:52.254Z,55.16
2022-09-06T03:14:19.941Z,56.19
2022-09-06T03:16:46.971Z,55.04
2022-09-06T03:19:14.038Z,56.03
2022-09-06T03:21:40.993Z,55.23
2022-09-06T03:24:08.112Z,56.13
2022-09-06T03:26:35.083Z,57.54
2022-09-06T03:29:02.291Z,56.48
2022-09-06T03:31:29.260Z,57.00
2022-09-06T03:33:56.285Z,55.91
2022-09-06T03:36:23.259Z,56.38
2022-09-06T03:38:51.104Z,56.30
2022-09-06T03:41:18.337Z,55.69
2022-09-06T03:43:45.269Z,57.00
2022-09-06T03:46:12.389Z,56.06
2022-09-06T03:48:39.384Z,56.37
2022-09-06T03:51:06.514Z,56.62
2022-09-06T03:53:33.450Z,56.39
2022-09-06T03:56:00.698Z,56.33
2022-09-06T03:58:32.257Z,56.54
2022-09-06T04:01:10.278Z,56.67
2022-09-06T04:03:38.512Z,55.54
2022-09-06T04:06:11.692Z,56.23
2022-09-06T04:08:39.876Z,56.60
2022-09-06T04:11:07.111Z,56.12
2022-09-06T04:13:35.373Z,55.54
2022-09-06T04:16:04.945Z,56.15
2022-09-06T04:18:32.248Z,55.76
2022-09-06T04:20:59.734Z,55.38
2022-09-06T04:23:29.038Z,55.48
2022-09-06T04:25:59.966Z,56.09
2022-09-06T04:28:28.334Z,56.10
2022-09-06T04:31:05.170Z,56.32
2022-09-06T04:33:35.542Z,55.86
2022-09-06T04:36:08.365Z,56.52
2022-09-06T04:38:42.536Z,55.06
2022-09-06T04:41:12.985Z,55.79
2022-09-06T04:43:40.013Z,56.10
2022-09-06T04:46:22.103Z,56.75
2022-09-06T04:48:50.400Z,56.06
2022-09-06T04:51:18.332Z,55.77
2022-09-06T04:53:45.815Z,56.27
2022-09-06T04:56:23.291Z,56.06
2022-09-06T04:58:51.912Z,55.89
2022-09-06T05:01:20.359Z,55.17
2022-09-06T05:03:48.120Z,56.37
2022-09-06T05:06:25.202Z,55.84
2022-09-06T05:08:52.383Z,55.92
2022-09-06T05:11:19.812Z,55.59
2022-09-06T05:13:47.632Z,56.11
2022-09-06T05:16:14.935Z,56.16
2022-09-06T05:18:42.240Z,55.01
2022-09-06T05:21:10.226Z,55.93
2022-09-06T05:23:37.406Z,55.63
2022-09-06T05:26:05.111Z,55.12
2022-09-06T05:28:32.478Z,55.29
2022-09-06T05:31:24.847Z,54.76
2022-09-06T05:33:56.245Z,55.17
2022-09-06T05:36:26.176Z,55.51
2022-09-06T05:38:56.030Z,54.52
2022-09-06T05:41:24.172Z,54.96
2022-09-06T05:43:51.384Z,55.06
2022-09-06T05:46:18.724Z,54.83
2022-09-06T05:48:57.918Z,54.69
2022-09-06T05:51:26.663Z,54.52
2022-09-06T05:53:53.689Z,53.96
2022-09-06T05:56:22.406Z,54.43
2022-09-06T05:58:49.359Z,54.15
2022-09-06T06:01:30.287Z,54.23
2022-09-06T06:04:03.083Z,54.01
2022-09-06T06:06:34.316Z,53.36
2022-09-06T06:09:02.309Z,53.99
2022-09-06T06:11:31.145Z,54.12
2022-09-06T06:13:59.005Z,53.73
2022-09-06T06:16:26.207Z,53.51
2022-09-06T06:18:53.315Z,53.74
2022-09-06T06:21:27.271Z,53.34
2022-09-06T06:24:01.418Z,53.25
2022-09-06T06:26:35.479Z,53.18
2022-09-06T06:29:09.618Z,52.85
2022-09-06T06:31:39.090Z,52.73
2022-09-06T06:34:06.607Z,52.99
2022-09-06T06:36:36.403Z,52.85
2022-09-06T06:39:08.805Z,52.75
2022-09-06T06:41:39.011Z,52.87
2022-09-06T06:44:06.900Z,52.53
2022-09-06T06:46:38.406Z,52.08
2022-09-06T06:49:08.512Z,52.12
2022-09-06T06:51:39.454Z,51.42
2022-09-06T06:54:07.074Z,51.81
2022-09-06T06:56:38.793Z,51.41
2022-09-06T06:59:07.836Z,51.59
2022-09-06T07:01:40.238Z,50.85
2022-09-06T07:04:14.293Z,50.89
2022-09-06T07:12:30.412Z,49.93
2022-09-06T07:14:57.430Z,50.49
2022-09-06T07:17:24.394Z,50.46
2022-09-06T07:22:40.579Z,50.66
2022-09-06T07:25:10.242Z,50.37
2022-09-06T07:27:47.660Z,51.15
2022-09-06T07:30:15.963Z,50.92
2022-09-06T07:32:42.995Z,51.33
2022-09-06T07:35:10.288Z,50.73
2022-09-06T07:37:37.547Z,51.01
2022-09-06T07:40:05.449Z,51.32
2022-09-06T07:42:36.205Z,51.47
2022-09-06T07:45:05.633Z,50.98
2022-09-06T07:53:14.888Z,49.98
2022-09-06T07:55:44.796Z,50.27
2022-09-06T07:58:20.034Z,50.27
2022-09-06T08:00:47.123Z,49.63
2022-09-06T08:03:17.343Z,49.98
2022-09-06T08:11:19.318Z,49.93
2022-09-06T08:13:51.907Z,50.05
2022-09-06T08:16:20.074Z,50.31
2022-09-06T08:18:56.245Z,49.80
2022-09-06T08:21:26.723Z,49.31
2022-09-06T08:23:58.636Z,49.49
2022-09-06T08:26:27.900Z,49.32
2022-09-06T08:29:01.030Z,50.09
2022-09-06T08:31:30.952Z,50.06
2022-09-06T08:34:00.794Z,49.30
2022-09-06T08:36:32.187Z,49.06
2022-09-06T08:39:06.755Z,49.97
2022-09-06T08:42:07.879Z,49.30
2022-09-06T08:47:22.217Z,49.58
2022-09-06T08:50:05.385Z,49.85
2022-09-06T08:53:06.222Z,48.59
2022-09-06T08:55:43.114Z,48.39
2022-09-06T08:58:35.450Z,48.58
2022-09-06T09:01:25.315Z,47.98
2022-09-06T09:03:57.162Z,47.85
2022-09-06T09:06:26.075Z,47.73
2022-09-06T09:09:08.622Z,47.21
2022-09-06T09:11:36.484Z,47.31
2022-09-06T09:14:12.680Z,46.50
2022-09-06T09:16:39.761Z,46.79
2022-09-06T09:19:09.284Z,45.95
2022-09-06T09:21:40.506Z,46.45
2022-09-06T09:24:15.787Z,46.40
2022-09-06T09:26:59.378Z,45.77
2022-09-06T09:29:29.457Z,45.68
2022-09-06T09:31:58.180Z,46.10
2022-09-06T09:34:37.710Z,46.08
2022-09-06T09:40:41.545Z,46.61
2022-09-06T09:43:28.531Z,46.00
2022-09-06T09:46:32.862Z,45.78
2022-09-06T09:49:29.007Z,45.51
2022-09-06T09:52:13.378Z,45.67
2022-09-06T09:54:46.806Z,45.26
2022-09-06T09:57:20.546Z,44.73
2022-09-06T10:00:01.084Z,44.67
2022-09-06T10:02:35.617Z,44.29
2022-09-06T10:05:12.436Z,44.75
2022-09-06T10:07:59.328Z,44.67
2022-09-06T10:10:32.737Z,44.55
2022-09-06T10:13:26.457Z,44.79
2022-09-06T10:15:54.498Z,44.45
2022-09-06T10:18:33.434Z,43.84
2022-09-06T10:21:17.631Z,44.01
2022-09-06T10:24:28.140Z,43.65
2022-09-06T10:27:01.038Z,43.65
2022-09-06T10:30:09.506Z,43.39
2022-09-06T10:32:53.283Z,43.36
2022-09-06T10:35:31.392Z,42.60
2022-09-06T10:38:35.662Z,43.59
2022-09-06T10:41:53.351Z,43.17
2022-09-06T10:45:28.446Z,43.08
2022-09-06T10:48:04.727Z,42.37
2022-09-06T10:50:51.614Z,42.65
2022-09-06T10:54:14.798Z,43.59
2022-09-06T10:57:02.352Z,43.53
2022-09-06T10:59:39.256Z,41.77
2022-09-06T11:05:59.416Z,42.97
2022-09-06T11:09:17.794Z,42.70
2022-09-06T11:11:58.118Z,42.53
2022-09-06T11:14:27.636Z,42.12
2022-09-06T11:17:22.570Z,42.81
2022-09-06T11:20:31.981Z,41.22
2022-09-06T11:23:49.779Z,41.43
2022-09-06T11:26:34.586Z,41.41
2022-09-06T11:29:25.420Z,40.74
2022-09-06T11:32:24.138Z,40.99
2022-09-06T11:34:58.917Z,40.49
2022-09-06T11:37:43.026Z,40.30
2022-09-06T11:40:27.418Z,41.01
2022-09-06T11:42:55.193Z,40.11
2022-09-06T11:45:49.940Z,41.19
2022-09-06T11:48:34.164Z,40.31
2022-09-06T11:51:11.142Z,40.67
2022-09-06T11:53:50.571Z,40.94
2022-09-06T11:56:42.698Z,39.67
2022-09-06T11:59:27.226Z,39.64
2022-09-06T12:02:02.459Z,40.21
2022-09-06T12:05:07.584Z,39.68
2022-09-06T12:08:10.345Z,39.64
2022-09-06T12:10:40.272Z,40.37
2022-09-06T12:13:42.284Z,39.83
2022-09-06T12:16:11.994Z,39.42
2022-09-06T12:18:47.943Z,39.08
2022-09-06T12:21:43.256Z,39.88
2022-09-06T12:24:35.170Z,39.42
2022-09-06T12:27:35.013Z,38.95
2022-09-06T12:30:12.415Z,40.00
2022-09-06T12:32:48.782Z,39.16
2022-09-06T12:38:23.400Z,38.85
2022-09-06T12:40:56.339Z,38.94
2022-09-06T12:43:23.667Z,39.51
2022-09-06T12:45:52.492Z,39.29
2022-09-06T12:48:41.489Z,38.92
2022-09-06T12:51:20.871Z,39.24
2022-09-06T12:54:26.247Z,39.90
2022-09-06T12:57:00.960Z,39.31
2022-09-06T12:59:29.663Z,39.00
2022-09-06T13:02:14.283Z,38.57
2022-09-06T13:04:52.008Z,39.21
2022-09-06T13:07:22.546Z,39.62
2022-09-06T13:09:54.089Z,38.83
2022-09-06T13:12:39.670Z,38.91
2022-09-06T13:15:31.146Z,39.15
2022-09-06T13:18:22.510Z,39.45
2022-09-06T13:21:11.997Z,39.51
2022-09-06T13:23:47.840Z,39.33
2022-09-06T13:26:15.880Z,39.16
2022-09-06T13:28:42.910Z,39.31
2022-09-06T13:31:17.248Z,38.68
2022-09-06T13:33:46.299Z,38.48
2022-09-06T13:36:30.679Z,39.05
2022-09-06T13:38:59.901Z,38.71
2022-09-06T13:41:26.720Z,38.76
2022-09-06T13:44:21.877Z,38.53
2022-09-06T13:46:58.524Z,38.86
2022-09-06T13:49:27.121Z,39.23
2022-09-06T13:52:00.124Z,40.01
2022-09-06T13:54:27.975Z,39.92
2022-09-06T13:56:56.179Z,39.64
2022-09-06T13:59:25.162Z,39.34
2022-09-06T14:02:12.451Z,39.67
2022-09-06T14:04:40.158Z,39.73
2022-09-06T14:07:07.164Z,39.35
2022-09-06T14:09:34.620Z,40.10
2022-09-06T14:12:06.815Z,39.69
2022-09-06T14:14:34.718Z,40.01
2022-09-06T14:17:04.235Z,39.88
2022-09-06T14:19:31.215Z,39.32
2022-09-06T14:21:58.219Z,39.13
2022-09-06T14:24:25.214Z,39.83
2022-09-06T14:26:53.815Z,39.94
2022-09-06T14:29:20.827Z,40.39
2022-09-06T14:31:48.957Z,40.16
2022-09-06T14:34:16.450Z,40.46
2022-09-06T14:36:43.523Z,41.37
2022-09-06T14:39:10.755Z,41.35
2022-09-06T14:41:37.791Z,41.57
2022-09-06T14:44:04.789Z,41.24
2022-09-06T14:46:31.849Z,40.37
2022-09-06T14:49:10.186Z,40.43
2022-09-06T14:51:38.558Z,40.89
2022-09-06T14:54:12.603Z,42.63
2022-09-06T14:56:41.949Z,42.40
2022-09-06T14:59:10.539Z,42.45
2022-09-06T15:01:38.973Z,42.55
2022-09-06T15:04:11.265Z,39.79
2022-09-06T15:06:41.175Z,39.42
2022-09-06T15:09:11.086Z,39.02
2022-09-06T15:11:52.867Z,38.95
2022-09-06T15:14:29.387Z,39.21
2022-09-06T15:16:59.938Z,39.27
2022-09-06T15:19:33.003Z,38.69
2022-09-06T15:22:00.128Z,39.30
2022-09-06T15:24:27.096Z,39.14
2022-09-06T15:26:54.645Z,40.11
2022-09-06T15:29:22.542Z,41.51
2022-09-06T15:31:50.751Z,41.33
2022-09-06T15:34:24.165Z,41.85
2022-09-06T15:36:55.955Z,41.98
2022-09-06T15:39:22.980Z,42.24
2022-09-06T15:41:51.681Z,40.96
2022-09-06T15:44:21.552Z,41.02
2022-09-06T15:46:58.297Z,42.04
2022-09-06T15:49:31.843Z,41.73
2022-09-06T15:52:06.139Z,42.06
2022-09-06T15:54:51.810Z,42.33
2022-09-06T15:57:19.040Z,41.47
2022-09-06T15:59:47.402Z,42.67
2022-09-06T16:02:14.792Z,42.71
2022-09-06T16:04:41.975Z,42.23
2022-09-06T16:07:10.032Z,43.05
2022-09-06T16:09:36.980Z,43.33
2022-09-06T16:12:04.775Z,43.37
2022-09-06T16:14:31.968Z,43.21
2022-09-06T16:16:59.043Z,42.98
2022-09-06T16:19:26.314Z,43.60
2022-09-06T16:21:53.504Z,42.82
2022-09-06T16:24:21.330Z,43.64
2022-09-06T16:26:48.363Z,43.87
2022-09-06T16:29:18.045Z,43.73
2022-09-06T16:31:46.831Z,43.58
2022-09-06T16:34:15.097Z,43.60
2022-09-06T16:36:42.392Z,43.56
2022-09-06T16:39:09.861Z,43.57
2022-09-06T16:41:46.202Z,43.03
2022-09-06T16:44:18.266Z,42.95
2022-09-06T16:46:50.266Z,43.41
2022-09-06T16:49:19.206Z,43.23
2022-09-06T16:51:48.788Z,43.53
2022-09-06T16:54:16.574Z,43.70
2022-09-06T16:56:44.341Z,43.20
2022-09-06T16:59:12.830Z,43.75
2022-09-06T17:01:44.390Z,44.15
2022-09-06T17:04:13.009Z,43.83
2022-09-06T17:06:44.375Z,44.63
2022-09-06T17:09:16.209Z,44.20
2022-09-06T17:11:43.341Z,44.06
2022-09-06T17:14:10.551Z,44.43
2022-09-06T17:16:56.041Z,44.06
2022-09-06T17:19:23.049Z,44.38
2022-09-06T17:21:50.711Z,44.23
2022-09-06T17:24:17.870Z,44.76
2022-09-06T17:26:44.845Z,45.36
2022-09-06T17:29:12.188Z,44.17
2022-09-06T17:31:39.247Z,44.86
2022-09-06T17:34:07.656Z,44.57
2022-09-06T17:36:35.890Z,45.25
2022-09-06T17:39:23.748Z,44.06
2022-09-06T17:41:54.497Z,44.39
2022-09-06T17:44:26.679Z,44.82
2022-09-06T17:47:11.963Z,45.16
2022-09-06T17:49:40.409Z,45.45
2022-09-06T17:52:07.401Z,44.98
2022-09-06T17:54:34.464Z,45.33
2022-09-06T17:57:01.464Z,45.29
2022-09-06T17:59:32.844Z,45.45
2022-09-06T18:02:01.995Z,45.96
2022-09-06T18:04:29.060Z,45.17
2022-09-06T18:06:56.012Z,45.73
2022-09-06T18:09:23.031Z,44.39
2022-09-06T18:11:50.035Z,44.93
2022-09-06T18:14:20.862Z,44.61
2022-09-06T18:16:49.451Z,44.69
2022-09-06T18:19:18.304Z,45.00
2022-09-06T18:21:47.492Z,44.57
2022-09-06T18:24:15.403Z,45.48
2022-09-06T18:26:43.416Z,46.27
2022-09-06T18:29:16.604Z,45.36
2022-09-06T18:31:44.360Z,44.94
2022-09-06T18:34:12.319Z,45.41
2022-09-06T18:36:39.733Z,45.62
2022-09-06T18:39:07.116Z,45.52
2022-09-06T18:41:53.478Z,45.36
2022-09-06T18:44:21.514Z,45.27
2022-09-06T18:46:48.997Z,44.41
2022-09-06T18:49:17.337Z,45.07
2022-09-06T18:51:45.930Z,45.38
2022-09-06T18:54:14.168Z,45.40
2022-09-06T18:56:44.750Z,45.39
2022-09-06T18:59:13.688Z,45.13
2022-09-06T19:01:42.614Z,45.47
2022-09-06T19:04:11.073Z,45.67
2022-09-06T19:06:41.083Z,44.88
2022-09-06T19:09:14.231Z,45.34
2022-09-06T19:11:43.350Z,45.87
2022-09-06T19:14:10.388Z,45.57
2022-09-06T19:16:37.932Z,46.14
2022-09-06T19:19:08.515Z,46.25
2022-09-06T19:21:41.432Z,46.56
2022-09-06T19:24:11.734Z,46.41
2022-09-06T19:26:42.772Z,46.29
2022-09-06T19:29:15.615Z,46.52
2022-09-06T19:31:44.681Z,46.28
2022-09-06T19:34:13.481Z,46.61
2022-09-06T19:36:40.721Z,45.63
2022-09-06T19:39:13.245Z,46.26
2022-09-06T19:41:44.829Z,46.63
2022-09-06T19:44:13.146Z,45.79
2022-09-06T19:46:45.476Z,46.75
2022-09-06T19:49:16.777Z,45.97
2022-09-06T19:51:46.207Z,46.18
2022-09-06T19:54:14.045Z,46.04
2022-09-06T19:56:41.110Z,45.64
2022-09-06T19:59:12.114Z,47.32
2022-09-06T20:01:41.965Z,46.48
2022-09-06T20:04:12.786Z,47.42
2022-09-06T20:06:40.177Z,47.35
2022-09-06T20:09:10.203Z,47.13
2022-09-06T20:11:39.124Z,47.21
2022-09-06T20:14:06.305Z,46.93
2022-09-06T20:16:35.285Z,46.63
2022-09-06T20:19:05.210Z,47.13
2022-09-06T20:21:32.317Z,46.82
2022-09-06T20:24:00.101Z,46.87
2022-09-06T20:26:30.303Z,46.89
2022-09-06T20:29:03.876Z,46.26
2022-09-06T20:31:32.682Z,47.44
2022-09-06T20:34:02.321Z,47.47
2022-09-06T20:36:30.128Z,47.26
2022-09-06T20:38:57.423Z,47.87
2022-09-06T20:41:26.647Z,47.59
2022-09-06T20:43:57.540Z,47.40
2022-09-06T20:46:32.250Z,48.41
2022-09-06T20:49:04.427Z,47.85
2022-09-06T20:51:34.001Z,47.58
2022-09-06T20:54:03.773Z,48.05
2022-09-06T20:56:41.165Z,48.69
2022-09-06T20:59:12.021Z,48.21
2022-09-06T21:01:46.020Z,48.68
2022-09-06T21:04:16.858Z,47.43
2022-09-06T21:06:45.880Z,47.92
2022-09-06T21:09:15.202Z,48.66
2022-09-06T21:11:43.210Z,46.53
2022-09-06T21:14:10.357Z,47.75
2022-09-06T21:16:39.480Z,48.04
2022-09-06T21:19:10.299Z,47.98
2022-09-06T21:21:39.802Z,48.11
2022-09-06T21:24:09.086Z,48.33
2022-09-06T21:26:36.349Z,48.24
2022-09-06T21:29:04.374Z,47.80
2022-09-06T21:31:35.880Z,48.19
2022-09-06T21:34:15.490Z,48.46
2022-09-06T21:36:44.358Z,48.21
2022-09-06T21:39:12.958Z,48.33
2022-09-06T21:41:43.009Z,46.96
2022-09-06T21:44:10.851Z,47.79
2022-09-06T21:46:40.389Z,47.57
2022-09-06T21:49:14.010Z,47.18
2022-09-06T21:51:42.060Z,47.80
2022-09-06T21:54:09.331Z,48.01
2022-09-06T21:56:38.416Z,47.74
2022-09-06T21:59:06.248Z,46.88
2022-09-06T22:01:35.970Z,47.81
2022-09-06T22:04:04.529Z,47.23
2022-09-06T22:06:34.029Z,46.61
2022-09-06T22:09:08.359Z,46.85
2022-09-06T22:11:35.521Z,46.99
2022-09-06T22:14:07.829Z,46.78
2022-09-06T22:16:38.371Z,46.19
2022-09-06T22:19:07.655Z,46.22
2022-09-06T22:21:35.180Z,46.08
2022-09-06T22:24:11.403Z,46.06
2022-09-06T22:26:40.721Z,46.18
2022-09-06T22:29:11.285Z,46.43
2022-09-06T22:31:38.874Z,46.76
2022-09-06T22:34:06.880Z,46.47
2022-09-06T22:36:35.420Z,46.12
2022-09-06T22:39:02.580Z,46.43
2022-09-06T22:41:33.015Z,46.39
2022-09-06T22:44:02.209Z,47.08
2022-09-06T22:46:29.820Z,46.33
2022-09-06T22:48:57.106Z,46.88
2022-09-06T22:51:24.091Z,47.01
2022-09-06T22:53:51.044Z,47.41
2022-09-06T22:56:18.036Z,47.59
2022-09-06T22:58:45.078Z,47.07
2022-09-06T23:01:15.301Z,47.51
2022-09-06T23:03:42.810Z,47.48
2022-09-06T23:06:10.696Z,47.71
2022-09-06T23:08:40.378Z,47.79
2022-09-06T23:11:14.895Z,47.44
2022-09-06T23:13:46.094Z,48.25
2022-09-06T23:16:19.415Z,48.04
2022-09-06T23:18:47.999Z,47.90
2022-09-06T23:21:20.383Z,47.81
2022-09-06T23:23:50.425Z,48.33
2022-09-06T23:26:23.576Z,48.13
2022-09-06T23:28:56.414Z,47.58
2022-09-06T23:31:28.338Z,48.11
2022-09-06T23:33:58.279Z,47.62
2022-09-06T23:36:26.531Z,47.87
2022-09-06T23:38:53.630Z,47.84
2022-09-06T23:41:20.598Z,48.26
2022-09-06T23:43:47.675Z,48.70
2022-09-06T23:46:15.167Z,48.12
2022-09-06T23:48:43.427Z,48.89
2022-09-06T23:51:11.701Z,48.54
2022-09-06T23:53:39.394Z,48.54
2022-09-06T23:56:07.030Z,48.89
2022-09-06T23:58:35.336Z,49.21
